sensor_id;sensor_type;location;lat;lon;timestamp;P1;durP1;ratioP1;P2;durP2;ratioP2
21810;SDS011;11067;48.788;9.208;2023-09-19T00:00:19;1.90;;;1.00;;
21810;SDS011;11067;48.788;9.208;2023-09-19T00:02:53;0.90;;;0.80;;
21810;SDS011;11067;48.788;9.208;2023-09-19T00:05:26;1.40;;;0.90;;
21810;SDS011;11067;48.788;9.208;2023-09-19T00:07:53;1.95;;;0.70;;
21810;SDS011;11067;48.788;9.208;2023-09-19T00:10:23;1.15;;;0.68;;
21810;SDS011;11067;48.788;9.208;2023-09-19T00:12:54;1.77;;;0.77;;
21810;SDS011;11067;48.788;9.208;2023-09-19T00:15:21;2.23;;;0.80;;
21810;SDS011;11067;48.788;9.208;2023-09-19T00:17:51;0.80;;;0.60;;
21810;SDS011;11067;48.788;9.208;2023-09-19T00:20:17;1.20;;;0.93;;
21810;SDS011;11067;48.788;9.208;2023-09-19T00:22:43;1.17;;;0.70;;
21810;SDS011;11067;48.788;9.208;2023-09-19T00:25:09;1.80;;;0.88;;
21810;SDS011;11067;48.788;9.208;2023-09-19T00:27:37;1.00;;;0.73;;
21810;SDS011;11067;48.788;9.208;2023-09-19T00:30:08;1.00;;;0.80;;
21810;SDS011;11067;48.788;9.208;2023-09-19T00:32:49;1.70;;;0.80;;
21810;SDS011;11067;48.788;9.208;2023-09-19T00:35:19;1.00;;;0.70;;
21810;SDS011;11067;48.788;9.208;2023-09-19T00:37:51;0.88;;;0.77;;
21810;SDS011;11067;48.788;9.208;2023-09-19T00:40:17;3.70;;;0.80;;
21810;SDS011;11067;48.788;9.208;2023-09-19T00:42:43;0.70;;;0.57;;
21810;SDS011;11067;48.788;9.208;2023-09-19T00:45:10;1.20;;;0.80;;
21810;SDS011;11067;48.788;9.208;2023-09-19T00:47:40;0.80;;;0.68;;
21810;SDS011;11067;48.788;9.208;2023-09-19T00:50:08;0.93;;;0.70;;
21810;SDS011;11067;48.788;9.208;2023-09-19T00:52:36;1.10;;;0.73;;
21810;SDS011;11067;48.788;9.208;2023-09-19T00:55:03;2.47;;;0.80;;
21810;SDS011;11067;48.788;9.208;2023-09-19T00:57:30;1.67;;;0.95;;
21810;SDS011;11067;48.788;9.208;2023-09-19T00:59:57;1.73;;;0.80;;
21810;SDS011;11067;48.788;9.208;2023-09-19T01:02:25;0.82;;;0.68;;
21810;SDS011;11067;48.788;9.208;2023-09-19T01:04:53;1.02;;;0.60;;
21810;SDS011;11067;48.788;9.208;2023-09-19T01:07:19;0.63;;;0.60;;
21810;SDS011;11067;48.788;9.208;2023-09-19T01:09:47;1.95;;;0.80;;
21810;SDS011;11067;48.788;9.208;2023-09-19T01:12:13;1.20;;;0.80;;
21810;SDS011;11067;48.788;9.208;2023-09-19T01:14:50;1.73;;;0.68;;
21810;SDS011;11067;48.788;9.208;2023-09-19T01:17:25;1.07;;;0.70;;
21810;SDS011;11067;48.788;9.208;2023-09-19T01:28:25;0.88;;;0.57;;
21810;SDS011;11067;48.788;9.208;2023-09-19T01:31:01;0.80;;;0.70;;
21810;SDS011;11067;48.788;9.208;2023-09-19T01:33:28;1.50;;;0.77;;
21810;SDS011;11067;48.788;9.208;2023-09-19T01:36:16;2.08;;;0.70;;
21810;SDS011;11067;48.788;9.208;2023-09-19T01:38:41;0.80;;;0.60;;
21810;SDS011;11067;48.788;9.208;2023-09-19T01:41:11;1.55;;;0.57;;
21810;SDS011;11067;48.788;9.208;2023-09-19T01:43:42;2.88;;;0.60;;
21810;SDS011;11067;48.788;9.208;2023-09-19T01:46:12;1.55;;;0.70;;
21810;SDS011;11067;48.788;9.208;2023-09-19T01:49:03;1.15;;;0.70;;
21810;SDS011;11067;48.788;9.208;2023-09-19T01:51:56;0.80;;;0.70;;
21810;SDS011;11067;48.788;9.208;2023-09-19T01:54:32;1.40;;;0.60;;
21810;SDS011;11067;48.788;9.208;2023-09-19T01:57:05;1.70;;;0.60;;
21810;SDS011;11067;48.788;9.208;2023-09-19T01:59:49;1.20;;;0.70;;
21810;SDS011;11067;48.788;9.208;2023-09-19T02:02:19;2.20;;;0.80;;
21810;SDS011;11067;48.788;9.208;2023-09-19T02:04:47;0.65;;;0.50;;
21810;SDS011;11067;48.788;9.208;2023-09-19T02:07:14;1.20;;;0.73;;
21810;SDS011;11067;48.788;9.208;2023-09-19T02:09:40;1.52;;;0.80;;
21810;SDS011;11067;48.788;9.208;2023-09-19T02:12:08;1.20;;;0.85;;
21810;SDS011;11067;48.788;9.208;2023-09-19T02:14:34;1.85;;;0.70;;
21810;SDS011;11067;48.788;9.208;2023-09-19T02:17:01;1.43;;;0.63;;
21810;SDS011;11067;48.788;9.208;2023-09-19T02:19:30;0.90;;;0.70;;
21810;SDS011;11067;48.788;9.208;2023-09-19T02:21:58;1.30;;;0.52;;
21810;SDS011;11067;48.788;9.208;2023-09-19T02:24:24;0.73;;;0.40;;
21810;SDS011;11067;48.788;9.208;2023-09-19T02:26:51;1.58;;;0.60;;
21810;SDS011;11067;48.788;9.208;2023-09-19T02:29:17;0.80;;;0.63;;
21810;SDS011;11067;48.788;9.208;2023-09-19T02:31:43;0.93;;;0.60;;
21810;SDS011;11067;48.788;9.208;2023-09-19T02:34:08;0.88;;;0.70;;
21810;SDS011;11067;48.788;9.208;2023-09-19T02:36:34;1.23;;;0.68;;
21810;SDS011;11067;48.788;9.208;2023-09-19T02:39:00;1.00;;;0.70;;
21810;SDS011;11067;48.788;9.208;2023-09-19T02:41:26;0.88;;;0.68;;
21810;SDS011;11067;48.788;9.208;2023-09-19T02:43:54;2.45;;;1.10;;
21810;SDS011;11067;48.788;9.208;2023-09-19T02:46:20;2.97;;;0.70;;
21810;SDS011;11067;48.788;9.208;2023-09-19T02:48:46;1.20;;;0.70;;
21810;SDS011;11067;48.788;9.208;2023-09-19T02:51:12;1.60;;;0.73;;
21810;SDS011;11067;48.788;9.208;2023-09-19T02:53:38;2.22;;;0.70;;
21810;SDS011;11067;48.788;9.208;2023-09-19T02:56:04;2.47;;;0.75;;
21810;SDS011;11067;48.788;9.208;2023-09-19T02:58:30;1.25;;;0.60;;
21810;SDS011;11067;48.788;9.208;2023-09-19T03:01:07;0.73;;;0.68;;
21810;SDS011;11067;48.788;9.208;2023-09-19T03:03:33;1.08;;;0.75;;
21810;SDS011;11067;48.788;9.208;2023-09-19T03:05:59;1.58;;;0.68;;
21810;SDS011;11067;48.788;9.208;2023-09-19T03:08:29;0.75;;;0.60;;
21810;SDS011;11067;48.788;9.208;2023-09-19T03:10:54;1.30;;;0.80;;
21810;SDS011;11067;48.788;9.208;2023-09-19T03:13:20;2.10;;;0.80;;
21810;SDS011;11067;48.788;9.208;2023-09-19T03:15:45;1.03;;;0.70;;
21810;SDS011;11067;48.788;9.208;2023-09-19T03:18:15;2.50;;;0.73;;
21810;SDS011;11067;48.788;9.208;2023-09-19T03:20:41;0.95;;;0.80;;
21810;SDS011;11067;48.788;9.208;2023-09-19T03:23:06;1.00;;;0.90;;
21810;SDS011;11067;48.788;9.208;2023-09-19T03:25:36;1.25;;;0.80;;
21810;SDS011;11067;48.788;9.208;2023-09-19T03:28:02;0.95;;;0.80;;
21810;SDS011;11067;48.788;9.208;2023-09-19T03:30:30;1.07;;;0.90;;
21810;SDS011;11067;48.788;9.208;2023-09-19T03:32:57;2.53;;;0.70;;
21810;SDS011;11067;48.788;9.208;2023-09-19T03:35:23;2.00;;;0.90;;
21810;SDS011;11067;48.788;9.208;2023-09-19T03:37:49;1.48;;;0.82;;
21810;SDS011;11067;48.788;9.208;2023-09-19T03:40:14;0.90;;;0.73;;
21810;SDS011;11067;48.788;9.208;2023-09-19T03:42:41;1.90;;;0.75;;
21810;SDS011;11067;48.788;9.208;2023-09-19T03:45:07;1.05;;;0.80;;
21810;SDS011;11067;48.788;9.208;2023-09-19T03:47:37;1.25;;;0.80;;
21810;SDS011;11067;48.788;9.208;2023-09-19T03:50:03;3.27;;;0.90;;
21810;SDS011;11067;48.788;9.208;2023-09-19T03:52:30;1.05;;;0.90;;
21810;SDS011;11067;48.788;9.208;2023-09-19T03:54:55;1.75;;;0.85;;
21810;SDS011;11067;48.788;9.208;2023-09-19T03:57:21;0.70;;;0.70;;
21810;SDS011;11067;48.788;9.208;2023-09-19T03:59:46;0.82;;;0.73;;
21810;SDS011;11067;48.788;9.208;2023-09-19T04:02:12;2.33;;;0.83;;
21810;SDS011;11067;48.788;9.208;2023-09-19T04:04:47;1.20;;;0.90;;
21810;SDS011;11067;48.788;9.208;2023-09-19T04:07:13;1.20;;;0.80;;
21810;SDS011;11067;48.788;9.208;2023-09-19T04:09:38;1.30;;;0.93;;
21810;SDS011;11067;48.788;9.208;2023-09-19T04:12:04;2.00;;;0.80;;
21810;SDS011;11067;48.788;9.208;2023-09-19T04:14:30;3.33;;;1.17;;
21810;SDS011;11067;48.788;9.208;2023-09-19T04:16:55;3.22;;;1.00;;
21810;SDS011;11067;48.788;9.208;2023-09-19T04:19:21;2.23;;;1.00;;
21810;SDS011;11067;48.788;9.208;2023-09-19T04:21:47;1.13;;;0.83;;
21810;SDS011;11067;48.788;9.208;2023-09-19T04:24:13;1.70;;;0.80;;
21810;SDS011;11067;48.788;9.208;2023-09-19T04:26:39;3.30;;;1.00;;
21810;SDS011;11067;48.788;9.208;2023-09-19T04:29:04;2.37;;;1.10;;
21810;SDS011;11067;48.788;9.208;2023-09-19T04:31:31;2.05;;;1.08;;
21810;SDS011;11067;48.788;9.208;2023-09-19T04:33:56;1.80;;;0.97;;
21810;SDS011;11067;48.788;9.208;2023-09-19T04:36:24;1.20;;;0.88;;
21810;SDS011;11067;48.788;9.208;2023-09-19T04:38:49;2.63;;;1.00;;
21810;SDS011;11067;48.788;9.208;2023-09-19T04:41:15;1.90;;;0.90;;
21810;SDS011;11067;48.788;9.208;2023-09-19T04:43:40;1.23;;;1.07;;
21810;SDS011;11067;48.788;9.208;2023-09-19T04:46:06;2.30;;;1.43;;
21810;SDS011;11067;48.788;9.208;2023-09-19T04:48:32;1.40;;;1.08;;
21810;SDS011;11067;48.788;9.208;2023-09-19T04:50:59;1.60;;;1.10;;
21810;SDS011;11067;48.788;9.208;2023-09-19T04:53:25;3.47;;;1.20;;
21810;SDS011;11067;48.788;9.208;2023-09-19T04:55:51;1.60;;;1.00;;
21810;SDS011;11067;48.788;9.208;2023-09-19T04:58:21;1.30;;;0.68;;
21810;SDS011;11067;48.788;9.208;2023-09-19T05:00:47;1.23;;;0.90;;
21810;SDS011;11067;48.788;9.208;2023-09-19T05:03:12;2.00;;;1.20;;
21810;SDS011;11067;48.788;9.208;2023-09-19T05:05:38;2.47;;;0.80;;
21810;SDS011;11067;48.788;9.208;2023-09-19T05:08:06;3.30;;;1.25;;
21810;SDS011;11067;48.788;9.208;2023-09-19T05:10:33;2.30;;;1.20;;
21810;SDS011;11067;48.788;9.208;2023-09-19T05:13:00;1.92;;;1.10;;
21810;SDS011;11067;48.788;9.208;2023-09-19T05:15:26;2.22;;;1.35;;
21810;SDS011;11067;48.788;9.208;2023-09-19T05:17:51;1.70;;;1.10;;
21810;SDS011;11067;48.788;9.208;2023-09-19T05:20:19;2.10;;;1.10;;
21810;SDS011;11067;48.788;9.208;2023-09-19T05:22:57;1.90;;;1.02;;
21810;SDS011;11067;48.788;9.208;2023-09-19T05:25:27;2.20;;;1.38;;
21810;SDS011;11067;48.788;9.208;2023-09-19T05:27:57;1.95;;;1.00;;
21810;SDS011;11067;48.788;9.208;2023-09-19T05:30:24;3.47;;;1.20;;
21810;SDS011;11067;48.788;9.208;2023-09-19T05:32:52;1.73;;;1.20;;
21810;SDS011;11067;48.788;9.208;2023-09-19T05:35:18;1.65;;;1.33;;
21810;SDS011;11067;48.788;9.208;2023-09-19T05:37:43;1.20;;;1.10;;
21810;SDS011;11067;48.788;9.208;2023-09-19T05:40:09;2.05;;;1.33;;
21810;SDS011;11067;48.788;9.208;2023-09-19T05:42:37;5.28;;;1.90;;
21810;SDS011;11067;48.788;9.208;2023-09-19T05:45:04;2.03;;;1.13;;
21810;SDS011;11067;48.788;9.208;2023-09-19T05:47:31;1.73;;;1.00;;
21810;SDS011;11067;48.788;9.208;2023-09-19T05:49:57;1.98;;;0.90;;
21810;SDS011;11067;48.788;9.208;2023-09-19T05:52:24;2.53;;;1.38;;
21810;SDS011;11067;48.788;9.208;2023-09-19T05:54:49;3.58;;;1.50;;
21810;SDS011;11067;48.788;9.208;2023-09-19T05:57:15;1.75;;;1.10;;
21810;SDS011;11067;48.788;9.208;2023-09-19T05:59:41;1.90;;;1.27;;
21810;SDS011;11067;48.788;9.208;2023-09-19T06:02:07;5.18;;;1.80;;
21810;SDS011;11067;48.788;9.208;2023-09-19T06:04:33;4.57;;;1.75;;
21810;SDS011;11067;48.788;9.208;2023-09-19T06:06:59;1.92;;;1.58;;
21810;SDS011;11067;48.788;9.208;2023-09-19T06:09:25;3.22;;;1.67;;
21810;SDS011;11067;48.788;9.208;2023-09-19T06:11:52;4.18;;;2.05;;
21810;SDS011;11067;48.788;9.208;2023-09-19T06:14:18;1.80;;;1.48;;
21810;SDS011;11067;48.788;9.208;2023-09-19T06:16:44;2.92;;;1.40;;
21810;SDS011;11067;48.788;9.208;2023-09-19T06:19:10;2.72;;;1.60;;
21810;SDS011;11067;48.788;9.208;2023-09-19T06:21:36;3.73;;;2.00;;
21810;SDS011;11067;48.788;9.208;2023-09-19T06:24:02;2.05;;;1.55;;
21810;SDS011;11067;48.788;9.208;2023-09-19T06:26:28;2.55;;;1.45;;
21810;SDS011;11067;48.788;9.208;2023-09-19T06:28:54;2.53;;;1.20;;
21810;SDS011;11067;48.788;9.208;2023-09-19T06:31:20;2.30;;;1.60;;
21810;SDS011;11067;48.788;9.208;2023-09-19T06:33:47;1.80;;;1.30;;
21810;SDS011;11067;48.788;9.208;2023-09-19T06:36:13;2.17;;;1.50;;
21810;SDS011;11067;48.788;9.208;2023-09-19T06:38:40;3.10;;;1.50;;
21810;SDS011;11067;48.788;9.208;2023-09-19T06:41:06;2.28;;;1.50;;
21810;SDS011;11067;48.788;9.208;2023-09-19T06:43:33;4.10;;;1.67;;
21810;SDS011;11067;48.788;9.208;2023-09-19T06:46:02;2.08;;;1.27;;
21810;SDS011;11067;48.788;9.208;2023-09-19T06:48:28;2.63;;;1.50;;
21810;SDS011;11067;48.788;9.208;2023-09-19T06:50:54;3.28;;;1.90;;
21810;SDS011;11067;48.788;9.208;2023-09-19T06:53:20;2.80;;;1.50;;
21810;SDS011;11067;48.788;9.208;2023-09-19T06:55:48;1.55;;;1.40;;
21810;SDS011;11067;48.788;9.208;2023-09-19T06:58:14;1.90;;;1.20;;
21810;SDS011;11067;48.788;9.208;2023-09-19T07:00:41;2.30;;;1.65;;
21810;SDS011;11067;48.788;9.208;2023-09-19T07:03:13;3.00;;;1.42;;
21810;SDS011;11067;48.788;9.208;2023-09-19T07:05:41;2.78;;;1.23;;
21810;SDS011;11067;48.788;9.208;2023-09-19T07:08:08;3.92;;;1.63;;
21810;SDS011;11067;48.788;9.208;2023-09-19T07:10:37;2.60;;;1.73;;
21810;SDS011;11067;48.788;9.208;2023-09-19T07:13:08;2.90;;;1.70;;
21810;SDS011;11067;48.788;9.208;2023-09-19T07:15:35;5.47;;;2.20;;
21810;SDS011;11067;48.788;9.208;2023-09-19T07:18:04;3.35;;;1.52;;
21810;SDS011;11067;48.788;9.208;2023-09-19T07:20:30;2.40;;;1.60;;
21810;SDS011;11067;48.788;9.208;2023-09-19T07:22:57;2.58;;;1.33;;
21810;SDS011;11067;48.788;9.208;2023-09-19T07:25:29;3.00;;;1.80;;
21810;SDS011;11067;48.788;9.208;2023-09-19T07:27:55;5.20;;;1.92;;
21810;SDS011;11067;48.788;9.208;2023-09-19T07:30:24;3.47;;;1.53;;
21810;SDS011;11067;48.788;9.208;2023-09-19T07:32:51;3.20;;;2.10;;
21810;SDS011;11067;48.788;9.208;2023-09-19T07:35:17;3.80;;;1.33;;
21810;SDS011;11067;48.788;9.208;2023-09-19T07:37:45;3.00;;;1.60;;
21810;SDS011;11067;48.788;9.208;2023-09-19T07:40:14;2.75;;;1.30;;
21810;SDS011;11067;48.788;9.208;2023-09-19T07:42:42;1.93;;;1.30;;
21810;SDS011;11067;48.788;9.208;2023-09-19T07:45:09;3.95;;;1.52;;
21810;SDS011;11067;48.788;9.208;2023-09-19T07:47:39;2.28;;;1.30;;
21810;SDS011;11067;48.788;9.208;2023-09-19T07:50:15;3.10;;;1.33;;
21810;SDS011;11067;48.788;9.208;2023-09-19T07:52:41;3.08;;;1.40;;
21810;SDS011;11067;48.788;9.208;2023-09-19T07:55:07;1.57;;;1.47;;
21810;SDS011;11067;48.788;9.208;2023-09-19T07:57:34;2.50;;;1.35;;
21810;SDS011;11067;48.788;9.208;2023-09-19T08:00:01;4.60;;;1.40;;
21810;SDS011;11067;48.788;9.208;2023-09-19T08:02:29;2.70;;;1.30;;
21810;SDS011;11067;48.788;9.208;2023-09-19T08:04:58;4.07;;;1.57;;
21810;SDS011;11067;48.788;9.208;2023-09-19T08:07:25;4.28;;;1.77;;
21810;SDS011;11067;48.788;9.208;2023-09-19T08:09:51;2.38;;;1.55;;
21810;SDS011;11067;48.788;9.208;2023-09-19T08:12:16;2.57;;;1.33;;
21810;SDS011;11067;48.788;9.208;2023-09-19T08:14:42;3.08;;;1.58;;
21810;SDS011;11067;48.788;9.208;2023-09-19T08:17:07;2.63;;;1.37;;
21810;SDS011;11067;48.788;9.208;2023-09-19T08:19:33;2.22;;;1.42;;
21810;SDS011;11067;48.788;9.208;2023-09-19T08:21:59;1.63;;;1.17;;
21810;SDS011;11067;48.788;9.208;2023-09-19T08:24:25;3.13;;;1.47;;
21810;SDS011;11067;48.788;9.208;2023-09-19T08:26:57;3.08;;;1.25;;
21810;SDS011;11067;48.788;9.208;2023-09-19T08:29:23;2.80;;;1.30;;
21810;SDS011;11067;48.788;9.208;2023-09-19T08:31:56;3.38;;;1.20;;
21810;SDS011;11067;48.788;9.208;2023-09-19T08:34:22;1.70;;;1.05;;
21810;SDS011;11067;48.788;9.208;2023-09-19T08:36:50;3.35;;;1.30;;
21810;SDS011;11067;48.788;9.208;2023-09-19T08:39:17;2.33;;;1.20;;
21810;SDS011;11067;48.788;9.208;2023-09-19T08:41:44;1.80;;;1.20;;
21810;SDS011;11067;48.788;9.208;2023-09-19T08:44:09;2.05;;;1.05;;
21810;SDS011;11067;48.788;9.208;2023-09-19T08:46:35;4.20;;;1.30;;
21810;SDS011;11067;48.788;9.208;2023-09-19T08:49:08;1.98;;;1.20;;
21810;SDS011;11067;48.788;9.208;2023-09-19T08:52:05;1.15;;;0.93;;
21810;SDS011;11067;48.788;9.208;2023-09-19T08:54:44;4.50;;;1.20;;
21810;SDS011;11067;48.788;9.208;2023-09-19T08:57:12;1.20;;;0.95;;
21810;SDS011;11067;48.788;9.208;2023-09-19T08:59:46;2.73;;;1.10;;
21810;SDS011;11067;48.788;9.208;2023-09-19T09:02:14;1.50;;;1.00;;
21810;SDS011;11067;48.788;9.208;2023-09-19T09:04:41;2.40;;;0.93;;
21810;SDS011;11067;48.788;9.208;2023-09-19T09:07:11;2.83;;;0.93;;
21810;SDS011;11067;48.788;9.208;2023-09-19T09:09:41;1.15;;;0.90;;
21810;SDS011;11067;48.788;9.208;2023-09-19T09:12:12;1.65;;;0.93;;
21810;SDS011;11067;48.788;9.208;2023-09-19T09:14:39;1.97;;;1.20;;
21810;SDS011;11067;48.788;9.208;2023-09-19T09:17:05;1.73;;;1.15;;
21810;SDS011;11067;48.788;9.208;2023-09-19T09:19:32;1.40;;;1.00;;
21810;SDS011;11067;48.788;9.208;2023-09-19T09:22:07;3.30;;;1.50;;
21810;SDS011;11067;48.788;9.208;2023-09-19T09:24:33;2.17;;;1.38;;
21810;SDS011;11067;48.788;9.208;2023-09-19T09:26:59;1.77;;;1.17;;
21810;SDS011;11067;48.788;9.208;2023-09-19T09:29:44;1.35;;;1.02;;
21810;SDS011;11067;48.788;9.208;2023-09-19T09:32:24;3.22;;;1.10;;
21810;SDS011;11067;48.788;9.208;2023-09-19T09:35:00;1.83;;;1.05;;
21810;SDS011;11067;48.788;9.208;2023-09-19T09:37:27;3.00;;;1.30;;
21810;SDS011;11067;48.788;9.208;2023-09-19T09:40:01;1.73;;;1.10;;
21810;SDS011;11067;48.788;9.208;2023-09-19T09:42:39;1.58;;;1.10;;
21810;SDS011;11067;48.788;9.208;2023-09-19T09:45:12;2.38;;;1.10;;
21810;SDS011;11067;48.788;9.208;2023-09-19T09:47:43;3.25;;;1.00;;
21810;SDS011;11067;48.788;9.208;2023-09-19T09:50:22;3.10;;;1.10;;
21810;SDS011;11067;48.788;9.208;2023-09-19T09:53:20;2.30;;;1.05;;
21810;SDS011;11067;48.788;9.208;2023-09-19T09:58:37;2.50;;;1.13;;
21810;SDS011;11067;48.788;9.208;2023-09-19T10:01:14;2.70;;;1.10;;
21810;SDS011;11067;48.788;9.208;2023-09-19T10:03:41;2.33;;;1.00;;
21810;SDS011;11067;48.788;9.208;2023-09-19T10:06:13;1.60;;;1.00;;
21810;SDS011;11067;48.788;9.208;2023-09-19T10:11:31;1.20;;;1.00;;
21810;SDS011;11067;48.788;9.208;2023-09-19T10:13:57;2.10;;;1.23;;
21810;SDS011;11067;48.788;9.208;2023-09-19T10:16:29;2.80;;;1.20;;
21810;SDS011;11067;48.788;9.208;2023-09-19T10:18:57;1.42;;;1.00;;
21810;SDS011;11067;48.788;9.208;2023-09-19T10:21:27;1.75;;;1.00;;
21810;SDS011;11067;48.788;9.208;2023-09-19T10:23:55;1.27;;;0.95;;
21810;SDS011;11067;48.788;9.208;2023-09-19T10:26:24;1.13;;;1.02;;
21810;SDS011;11067;48.788;9.208;2023-09-19T10:28:55;1.40;;;0.90;;
21810;SDS011;11067;48.788;9.208;2023-09-19T10:31:25;2.40;;;1.10;;
21810;SDS011;11067;48.788;9.208;2023-09-19T10:33:53;1.95;;;1.17;;
21810;SDS011;11067;48.788;9.208;2023-09-19T10:36:20;3.22;;;1.17;;
21810;SDS011;11067;48.788;9.208;2023-09-19T10:38:50;1.80;;;1.00;;
21810;SDS011;11067;48.788;9.208;2023-09-19T10:41:20;2.33;;;1.20;;
21810;SDS011;11067;48.788;9.208;2023-09-19T10:43:47;1.98;;;1.02;;
21810;SDS011;11067;48.788;9.208;2023-09-19T10:46:13;2.97;;;1.20;;
21810;SDS011;11067;48.788;9.208;2023-09-19T10:48:40;1.93;;;1.30;;
21810;SDS011;11067;48.788;9.208;2023-09-19T10:51:09;2.63;;;1.20;;
21810;SDS011;11067;48.788;9.208;2023-09-19T10:53:51;1.53;;;1.07;;
21810;SDS011;11067;48.788;9.208;2023-09-19T10:56:38;2.72;;;1.20;;
21810;SDS011;11067;48.788;9.208;2023-09-19T10:59:15;1.88;;;1.15;;
21810;SDS011;11067;48.788;9.208;2023-09-19T11:01:43;2.67;;;0.90;;
21810;SDS011;11067;48.788;9.208;2023-09-19T11:07:01;2.05;;;1.10;;
21810;SDS011;11067;48.788;9.208;2023-09-19T11:12:11;2.45;;;1.08;;
21810;SDS011;11067;48.788;9.208;2023-09-19T11:14:38;1.90;;;1.10;;
21810;SDS011;11067;48.788;9.208;2023-09-19T11:30:39;2.58;;;1.20;;
21810;SDS011;11067;48.788;9.208;2023-09-19T11:46:20;0.95;;;0.80;;
21810;SDS011;11067;48.788;9.208;2023-09-19T11:48:49;2.23;;;0.90;;
21810;SDS011;11067;48.788;9.208;2023-09-19T11:51:18;1.02;;;0.90;;
21810;SDS011;11067;48.788;9.208;2023-09-19T11:53:47;1.47;;;0.93;;
21810;SDS011;11067;48.788;9.208;2023-09-19T11:56:14;2.35;;;0.88;;
21810;SDS011;11067;48.788;9.208;2023-09-19T11:58:42;1.60;;;0.80;;
21810;SDS011;11067;48.788;9.208;2023-09-19T12:01:14;0.82;;;0.70;;
21810;SDS011;11067;48.788;9.208;2023-09-19T12:03:46;2.70;;;0.70;;
21810;SDS011;11067;48.788;9.208;2023-09-19T12:06:15;2.20;;;1.00;;
21810;SDS011;11067;48.788;9.208;2023-09-19T12:08:42;1.88;;;0.95;;
21810;SDS011;11067;48.788;9.208;2023-09-19T12:11:15;2.17;;;0.80;;
21810;SDS011;11067;48.788;9.208;2023-09-19T12:13:43;4.00;;;0.82;;
21810;SDS011;11067;48.788;9.208;2023-09-19T12:16:16;1.77;;;0.87;;
21810;SDS011;11067;48.788;9.208;2023-09-19T12:18:46;1.83;;;0.90;;
21810;SDS011;11067;48.788;9.208;2023-09-19T12:21:21;2.05;;;0.80;;
21810;SDS011;11067;48.788;9.208;2023-09-19T12:24:07;3.17;;;1.00;;
21810;SDS011;11067;48.788;9.208;2023-09-19T12:26:42;1.37;;;0.90;;
21810;SDS011;11067;48.788;9.208;2023-09-19T12:29:14;1.70;;;1.00;;
21810;SDS011;11067;48.788;9.208;2023-09-19T12:31:49;1.70;;;1.10;;
21810;SDS011;11067;48.788;9.208;2023-09-19T12:34:27;2.53;;;0.98;;
21810;SDS011;11067;48.788;9.208;2023-09-19T12:37:06;1.30;;;0.80;;
21810;SDS011;11067;48.788;9.208;2023-09-19T12:39:46;1.38;;;0.90;;
21810;SDS011;11067;48.788;9.208;2023-09-19T12:42:20;1.85;;;1.10;;
21810;SDS011;11067;48.788;9.208;2023-09-19T12:44:48;1.15;;;0.90;;
21810;SDS011;11067;48.788;9.208;2023-09-19T12:47:20;1.60;;;0.87;;
21810;SDS011;11067;48.788;9.208;2023-09-19T12:52:42;2.15;;;0.95;;
21810;SDS011;11067;48.788;9.208;2023-09-19T13:00:35;2.97;;;1.13;;
21810;SDS011;11067;48.788;9.208;2023-09-19T13:03:50;1.30;;;1.10;;
21810;SDS011;11067;48.788;9.208;2023-09-19T13:06:01;1.77;;;1.20;;
21810;SDS011;11067;48.788;9.208;2023-09-19T13:08:32;0.87;;;0.80;;
21810;SDS011;11067;48.788;9.208;2023-09-19T13:11:03;2.20;;;1.13;;
21810;SDS011;11067;48.788;9.208;2023-09-19T13:13:37;1.70;;;1.02;;
21810;SDS011;11067;48.788;9.208;2023-09-19T13:16:04;2.17;;;0.97;;
21810;SDS011;11067;48.788;9.208;2023-09-19T13:18:43;1.23;;;0.95;;
21810;SDS011;11067;48.788;9.208;2023-09-19T13:21:10;1.98;;;1.10;;
21810;SDS011;11067;48.788;9.208;2023-09-19T13:23:40;1.93;;;1.00;;
21810;SDS011;11067;48.788;9.208;2023-09-19T13:26:07;2.70;;;1.10;;
21810;SDS011;11067;48.788;9.208;2023-09-19T13:28:33;2.38;;;1.13;;
21810;SDS011;11067;48.788;9.208;2023-09-19T13:30:59;2.10;;;1.10;;
21810;SDS011;11067;48.788;9.208;2023-09-19T13:33:25;3.30;;;1.10;;
21810;SDS011;11067;48.788;9.208;2023-09-19T13:35:51;2.25;;;1.10;;
21810;SDS011;11067;48.788;9.208;2023-09-19T13:38:17;1.40;;;1.00;;
21810;SDS011;11067;48.788;9.208;2023-09-19T13:40:47;4.00;;;1.10;;
21810;SDS011;11067;48.788;9.208;2023-09-19T13:43:12;3.37;;;1.27;;
21810;SDS011;11067;48.788;9.208;2023-09-19T13:45:38;1.50;;;1.13;;
21810;SDS011;11067;48.788;9.208;2023-09-19T13:48:07;2.40;;;1.10;;
21810;SDS011;11067;48.788;9.208;2023-09-19T13:50:33;3.37;;;1.00;;
21810;SDS011;11067;48.788;9.208;2023-09-19T13:53:01;2.58;;;1.10;;
21810;SDS011;11067;48.788;9.208;2023-09-19T13:55:28;1.00;;;0.90;;
21810;SDS011;11067;48.788;9.208;2023-09-19T13:57:54;3.40;;;1.10;;
21810;SDS011;11067;48.788;9.208;2023-09-19T14:00:21;1.70;;;1.07;;
21810;SDS011;11067;48.788;9.208;2023-09-19T14:02:49;1.80;;;1.20;;
21810;SDS011;11067;48.788;9.208;2023-09-19T14:05:15;2.27;;;1.07;;
21810;SDS011;11067;48.788;9.208;2023-09-19T14:07:42;1.88;;;1.23;;
21810;SDS011;11067;48.788;9.208;2023-09-19T14:10:08;1.90;;;0.97;;
21810;SDS011;11067;48.788;9.208;2023-09-19T14:12:35;2.30;;;1.17;;
21810;SDS011;11067;48.788;9.208;2023-09-19T14:15:02;8.05;;;2.17;;
21810;SDS011;11067;48.788;9.208;2023-09-19T14:17:29;2.17;;;1.00;;
21810;SDS011;11067;48.788;9.208;2023-09-19T14:19:54;1.53;;;1.00;;
21810;SDS011;11067;48.788;9.208;2023-09-19T14:22:20;4.37;;;1.00;;
21810;SDS011;11067;48.788;9.208;2023-09-19T14:24:46;2.50;;;1.00;;
21810;SDS011;11067;48.788;9.208;2023-09-19T14:27:12;1.77;;;1.08;;
21810;SDS011;11067;48.788;9.208;2023-09-19T14:29:38;1.35;;;0.98;;
21810;SDS011;11067;48.788;9.208;2023-09-19T14:32:04;1.63;;;0.90;;
21810;SDS011;11067;48.788;9.208;2023-09-19T14:34:30;1.90;;;1.10;;
21810;SDS011;11067;48.788;9.208;2023-09-19T14:36:56;1.65;;;1.00;;
21810;SDS011;11067;48.788;9.208;2023-09-19T14:39:22;1.50;;;1.00;;
21810;SDS011;11067;48.788;9.208;2023-09-19T14:41:48;1.83;;;1.20;;
21810;SDS011;11067;48.788;9.208;2023-09-19T14:44:14;2.67;;;1.08;;
21810;SDS011;11067;48.788;9.208;2023-09-19T14:46:41;3.25;;;1.30;;
21810;SDS011;11067;48.788;9.208;2023-09-19T14:49:08;5.65;;;1.10;;
21810;SDS011;11067;48.788;9.208;2023-09-19T14:51:35;1.57;;;1.00;;
21810;SDS011;11067;48.788;9.208;2023-09-19T14:54:00;2.95;;;1.27;;
21810;SDS011;11067;48.788;9.208;2023-09-19T14:56:27;1.98;;;0.90;;
21810;SDS011;11067;48.788;9.208;2023-09-19T14:58:55;1.58;;;0.95;;
21810;SDS011;11067;48.788;9.208;2023-09-19T15:01:20;4.07;;;1.30;;
21810;SDS011;11067;48.788;9.208;2023-09-19T15:03:47;2.35;;;1.10;;
21810;SDS011;11067;48.788;9.208;2023-09-19T15:06:15;1.30;;;1.10;;
21810;SDS011;11067;48.788;9.208;2023-09-19T15:08:44;2.00;;;1.13;;
21810;SDS011;11067;48.788;9.208;2023-09-19T15:11:13;2.00;;;1.13;;
21810;SDS011;11067;48.788;9.208;2023-09-19T15:13:41;1.50;;;1.13;;
21810;SDS011;11067;48.788;9.208;2023-09-19T15:16:08;1.60;;;1.05;;
21810;SDS011;11067;48.788;9.208;2023-09-19T15:18:35;1.67;;;1.00;;
21810;SDS011;11067;48.788;9.208;2023-09-19T15:21:06;1.33;;;1.07;;
21810;SDS011;11067;48.788;9.208;2023-09-19T15:23:33;2.10;;;1.00;;
21810;SDS011;11067;48.788;9.208;2023-09-19T15:26:04;3.25;;;1.13;;
21810;SDS011;11067;48.788;9.208;2023-09-19T15:28:32;1.80;;;1.60;;
21810;SDS011;11067;48.788;9.208;2023-09-19T15:31:02;1.37;;;1.00;;
21810;SDS011;11067;48.788;9.208;2023-09-19T15:33:29;1.80;;;0.93;;
21810;SDS011;11067;48.788;9.208;2023-09-19T15:41:22;1.60;;;0.70;;
21810;SDS011;11067;48.788;9.208;2023-09-19T15:43:52;1.67;;;1.13;;
21810;SDS011;11067;48.788;9.208;2023-09-19T15:46:18;1.65;;;0.90;;
21810;SDS011;11067;48.788;9.208;2023-09-19T15:48:45;3.00;;;1.00;;
21810;SDS011;11067;48.788;9.208;2023-09-19T15:51:11;4.10;;;1.00;;
21810;SDS011;11067;48.788;9.208;2023-09-19T15:53:46;1.33;;;0.80;;
21810;SDS011;11067;48.788;9.208;2023-09-19T15:56:14;4.53;;;1.30;;